createdAt,value
2023-05-16T00:00:01.707Z,12.8
2023-05-16T00:01:02.280Z,13.1
2023-05-16T00:02:03.013Z,11.9
2023-05-16T00:03:03.762Z,15.3
2023-05-16T00:04:04.634Z,12.9
2023-05-16T00:05:05.343Z,12.1
2023-05-16T00:06:05.903Z,12.9
2023-05-16T00:07:06.501Z,12.0
2023-05-16T00:08:07.091Z,12.2
2023-05-16T00:09:07.709Z,14.1
2023-05-16T00:10:08.285Z,12.9
2023-05-16T00:11:08.929Z,12.2
2023-05-16T00:12:09.500Z,12.2
2023-05-16T00:13:10.094Z,11.8
2023-05-16T00:14:10.691Z,10.6
2023-05-16T00:15:11.306Z,10.7
2023-05-16T00:16:11.962Z,10.8
2023-05-16T00:17:12.590Z,10.5
2023-05-16T00:18:13.143Z,11.5
2023-05-16T00:19:13.811Z,10.0
2023-05-16T00:20:14.415Z,9.7
2023-05-16T00:21:15.013Z,8.9
2023-05-16T00:22:15.604Z,9.3
2023-05-16T00:23:16.207Z,8.8
2023-05-16T00:24:16.819Z,8.6
2023-05-16T00:25:17.418Z,9.5
2023-05-16T00:26:18.009Z,8.5
2023-05-16T00:27:18.606Z,11.1
2023-05-16T00:28:19.208Z,8.2
2023-05-16T00:29:19.843Z,7.7
2023-05-16T00:30:20.393Z,7.5
2023-05-16T00:31:21.027Z,8.4
2023-05-16T00:32:21.759Z,10.5
2023-05-16T00:33:22.390Z,7.6
2023-05-16T00:34:23.130Z,7.1
2023-05-16T00:35:23.606Z,7.7
2023-05-16T00:36:24.192Z,7.4
2023-05-16T00:37:24.786Z,8.0
2023-05-16T00:38:25.385Z,9.9
2023-05-16T00:39:25.981Z,7.0
2023-05-16T00:40:26.738Z,7.2
2023-05-16T00:41:27.408Z,8.1
2023-05-16T00:42:28.008Z,7.6
2023-05-16T00:43:28.608Z,7.4
2023-05-16T00:44:29.194Z,8.0
2023-05-16T00:45:29.796Z,7.8
2023-05-16T00:46:30.406Z,7.8
2023-05-16T00:47:31.035Z,7.6
2023-05-16T00:48:31.628Z,8.2
2023-05-16T00:49:32.219Z,7.1
2023-05-16T00:50:32.813Z,6.7
2023-05-16T00:51:33.410Z,8.0
2023-05-16T00:52:34.004Z,6.9
2023-05-16T00:53:34.601Z,7.1
2023-05-16T00:54:35.221Z,7.6
2023-05-16T00:55:35.834Z,7.1
2023-05-16T00:56:36.412Z,7.0
2023-05-16T00:57:37.000Z,8.1
2023-05-16T00:58:37.602Z,6.7
2023-05-16T00:59:38.199Z,7.3
2023-05-16T01:00:38.798Z,7.2
2023-05-16T01:01:39.460Z,6.4
2023-05-16T01:02:40.176Z,7.1
2023-05-16T01:03:40.874Z,6.4
2023-05-16T01:04:41.387Z,7.1
2023-05-16T01:05:41.996Z,7.1
2023-05-16T01:06:42.594Z,8.7
2023-05-16T01:07:43.189Z,7.3
2023-05-16T01:08:43.806Z,6.1
2023-05-16T01:09:44.395Z,6.8
2023-05-16T01:10:44.992Z,5.7
2023-05-16T01:11:45.583Z,5.4
2023-05-16T01:12:46.202Z,6.7
2023-05-16T01:13:46.796Z,6.6
2023-05-16T01:14:47.407Z,7.2
2023-05-16T01:15:48.075Z,6.1
2023-05-16T01:16:48.766Z,5.6
2023-05-16T01:17:49.399Z,6.1
2023-05-16T01:18:50.010Z,5.7
2023-05-16T01:19:50.564Z,5.8
2023-05-16T01:20:51.177Z,6.3
2023-05-16T01:21:51.772Z,6.8
2023-05-16T01:22:52.372Z,6.3
2023-05-16T01:23:52.978Z,7.1
2023-05-16T01:24:53.576Z,6.6
2023-05-16T01:25:54.173Z,6.9
2023-05-16T01:26:54.805Z,7.0
2023-05-16T01:27:55.404Z,7.4
2023-05-16T01:28:56.043Z,8.5
2023-05-16T01:29:56.603Z,7.9
2023-05-16T01:30:57.198Z,8.3
2023-05-16T01:31:57.843Z,7.4
2023-05-16T01:32:58.406Z,8.2
2023-05-16T01:33:58.985Z,7.9
2023-05-16T01:34:59.578Z,8.7
2023-05-16T01:36:00.169Z,7.9
2023-05-16T01:37:00.769Z,10.5
2023-05-16T01:38:01.359Z,8.5
2023-05-16T01:39:01.952Z,8.6
2023-05-16T01:40:02.547Z,8.4
2023-05-16T01:41:03.147Z,8.6
2023-05-16T01:42:03.763Z,9.1
2023-05-16T01:43:04.330Z,8.5
2023-05-16T01:44:04.924Z,9.3
2023-05-16T01:45:05.527Z,8.3
2023-05-16T01:46:06.119Z,8.9
2023-05-16T01:47:06.779Z,7.9
2023-05-16T01:48:07.519Z,8.1
2023-05-16T01:49:08.108Z,8.6
2023-05-16T01:50:08.696Z,7.6
2023-05-16T01:51:09.289Z,7.3
2023-05-16T01:52:09.902Z,7.2
2023-05-16T01:53:10.480Z,6.9
2023-05-16T01:54:11.088Z,6.4
2023-05-16T01:55:11.675Z,6.9
2023-05-16T01:56:12.267Z,6.5
2023-05-16T01:57:12.863Z,6.4
2023-05-16T01:58:13.460Z,5.8
2023-05-16T01:59:14.055Z,6.9
2023-05-16T02:00:14.649Z,5.4
2023-05-16T02:01:15.253Z,5.7
2023-05-16T02:02:15.837Z,5.1
2023-05-16T02:03:16.628Z,4.8
2023-05-16T02:04:17.332Z,4.7
2023-05-16T02:05:17.836Z,4.1
2023-05-16T02:06:18.425Z,4.5
2023-05-16T02:07:19.023Z,4.4
2023-05-16T02:08:19.636Z,3.8
2023-05-16T02:09:20.230Z,3.7
2023-05-16T02:10:20.826Z,3.8
2023-05-16T02:11:21.419Z,4.6
2023-05-16T02:12:22.014Z,3.7
2023-05-16T02:13:22.608Z,4.3
2023-05-16T02:14:23.219Z,4.0
2023-05-16T02:15:23.820Z,6.3
2023-05-16T02:16:24.458Z,7.8
2023-05-16T02:17:25.027Z,4.1
2023-05-16T02:18:25.599Z,5.8
2023-05-16T02:19:26.202Z,3.9
2023-05-16T02:20:26.813Z,4.3
2023-05-16T02:21:27.427Z,13.4
2023-05-16T02:22:28.021Z,4.9
2023-05-16T02:23:28.625Z,4.2
2023-05-16T02:24:29.212Z,3.5
2023-05-16T02:25:29.815Z,4.4
2023-05-16T02:26:30.423Z,3.8
2023-05-16T02:27:31.018Z,4.0
2023-05-16T02:28:31.609Z,4.3
2023-05-16T02:29:32.206Z,6.7
2023-05-16T02:30:32.802Z,4.9
2023-05-16T02:31:33.618Z,6.2
2023-05-16T02:32:34.318Z,3.4
2023-05-16T02:33:34.889Z,7.1
2023-05-16T02:34:35.507Z,11.0
2023-05-16T02:35:36.106Z,3.8
2023-05-16T02:36:36.699Z,5.6
2023-05-16T02:37:37.321Z,9.8
2023-05-16T02:38:37.910Z,6.4
2023-05-16T02:39:38.505Z,6.0
2023-05-16T02:40:39.099Z,3.6
2023-05-16T02:41:39.697Z,4.5
2023-05-16T02:42:40.298Z,7.7
2023-05-16T02:43:40.885Z,7.7
2023-05-16T02:44:41.478Z,5.0
2023-05-16T02:45:42.099Z,5.5
2023-05-16T02:46:42.819Z,9.1
2023-05-16T02:47:43.473Z,7.1
2023-05-16T02:48:44.061Z,9.5
2023-05-16T02:49:44.654Z,4.4
2023-05-16T02:50:45.249Z,5.2
2023-05-16T02:51:45.848Z,6.6
2023-05-16T02:52:46.437Z,5.3
2023-05-16T02:53:47.041Z,3.7
2023-05-16T02:54:59.895Z,3.9
2023-05-16T02:55:49.259Z,8.0
2023-05-16T02:56:49.835Z,4.7
2023-05-16T02:57:50.454Z,14.8
2023-05-16T02:58:51.048Z,9.0
2023-05-16T02:59:51.659Z,8.2
2023-05-16T03:00:52.252Z,7.7
2023-05-16T03:01:52.953Z,6.3
2023-05-16T03:02:53.593Z,7.3
2023-05-16T03:03:54.294Z,8.2
2023-05-16T03:04:54.911Z,7.2
2023-05-16T03:05:55.498Z,5.0
2023-05-16T03:06:56.096Z,6.7
2023-05-16T03:07:56.711Z,6.3
2023-05-16T03:08:57.324Z,6.6
2023-05-16T03:09:57.919Z,7.9
2023-05-16T03:10:58.517Z,7.6
2023-05-16T03:11:59.106Z,6.9
2023-05-16T03:12:59.704Z,12.8
2023-05-16T03:14:01.785Z,7.9
2023-05-16T03:15:01.989Z,7.9
2023-05-16T03:16:02.579Z,7.5
2023-05-16T03:17:03.161Z,6.3
2023-05-16T03:18:03.761Z,5.1
2023-05-16T03:19:04.438Z,4.7
2023-05-16T03:20:05.074Z,8.0
2023-05-16T03:21:05.606Z,11.8
2023-05-16T03:22:06.203Z,6.9
2023-05-16T03:23:06.821Z,9.7
2023-05-16T03:24:07.524Z,10.1
2023-05-16T03:25:08.108Z,6.5
2023-05-16T03:26:08.716Z,10.8
2023-05-16T03:27:09.312Z,8.1
2023-05-16T03:28:09.948Z,7.7
2023-05-16T03:29:10.517Z,7.7
2023-05-16T03:30:11.105Z,6.4
2023-05-16T03:31:11.820Z,11.1
2023-05-16T03:32:12.434Z,13.7
2023-05-16T03:33:12.985Z,6.3
2023-05-16T03:34:13.586Z,6.7
2023-05-16T03:35:14.185Z,10.2
2023-05-16T03:36:14.780Z,9.3
2023-05-16T03:37:15.378Z,9.2
2023-05-16T03:38:15.980Z,12.5
2023-05-16T03:39:16.577Z,9.2
2023-05-16T03:40:17.178Z,10.1
2023-05-16T03:41:17.798Z,9.0
2023-05-16T03:42:18.403Z,14.6
2023-05-16T03:43:19.022Z,11.3
2023-05-16T03:44:19.637Z,10.9
2023-05-16T03:45:20.251Z,7.6
2023-05-16T03:46:20.943Z,8.9
2023-05-16T03:47:21.484Z,8.4
2023-05-16T03:48:22.094Z,8.3
2023-05-16T03:49:22.679Z,6.6
2023-05-16T03:50:23.291Z,8.2
2023-05-16T03:51:23.874Z,8.3
2023-05-16T03:52:24.476Z,8.1
2023-05-16T03:53:25.096Z,9.3
2023-05-16T03:54:25.703Z,7.3
2023-05-16T03:55:26.486Z,9.7
2023-05-16T03:56:27.184Z,11.4
2023-05-16T03:57:27.789Z,12.6
2023-05-16T03:58:28.399Z,10.0
2023-05-16T03:59:29.014Z,9.2
2023-05-16T04:00:29.603Z,9.9
2023-05-16T04:01:30.196Z,10.2
2023-05-16T04:02:30.932Z,16.8
2023-05-16T04:03:31.668Z,10.0
2023-05-16T04:04:32.260Z,10.3
2023-05-16T04:05:32.909Z,11.2
2023-05-16T04:06:33.480Z,6.7
2023-05-16T04:07:34.092Z,9.2
2023-05-16T04:08:34.679Z,13.1
2023-05-16T04:09:35.288Z,9.3
2023-05-16T04:10:35.878Z,12.5
2023-05-16T04:11:36.482Z,20.6
2023-05-16T04:12:37.079Z,11.9
2023-05-16T04:13:37.736Z,12.4
2023-05-16T04:14:38.361Z,9.8
2023-05-16T04:15:38.960Z,13.6
2023-05-16T04:16:39.589Z,9.0
2023-05-16T04:17:40.235Z,16.8
2023-05-16T04:18:40.804Z,9.6
2023-05-16T04:19:41.391Z,10.0
2023-05-16T04:20:42.007Z,9.0
2023-05-16T04:21:42.605Z,10.2
2023-05-16T04:22:43.207Z,10.2
2023-05-16T04:23:43.820Z,11.0
2023-05-16T04:24:44.446Z,10.4
2023-05-16T04:25:45.022Z,6.5
2023-05-16T04:26:45.622Z,13.8
2023-05-16T04:27:46.225Z,11.6
2023-05-16T04:28:46.822Z,13.5
2023-05-16T04:29:47.448Z,14.3
2023-05-16T04:30:48.052Z,10.3
2023-05-16T04:31:48.655Z,12.2
2023-05-16T04:32:49.292Z,8.4
2023-05-16T04:33:49.876Z,16.9
2023-05-16T04:34:50.472Z,14.4
2023-05-16T04:35:51.074Z,14.3
2023-05-16T04:36:51.674Z,11.6
2023-05-16T04:37:52.277Z,19.5
2023-05-16T04:38:52.885Z,9.9
2023-05-16T04:39:53.478Z,12.7
2023-05-16T04:40:54.085Z,14.7
2023-05-16T04:41:54.689Z,14.3
2023-05-16T04:42:55.303Z,10.5
2023-05-16T04:43:55.911Z,13.8
2023-05-16T04:44:56.524Z,10.3
2023-05-16T04:45:57.158Z,11.3
2023-05-16T04:46:57.856Z,16.0
2023-05-16T04:47:58.503Z,10.3
2023-05-16T04:48:59.079Z,13.1
2023-05-16T04:49:59.697Z,11.3
2023-05-16T04:51:00.317Z,8.8
2023-05-16T04:52:00.917Z,12.5
2023-05-16T04:53:01.519Z,8.6
2023-05-16T04:54:02.120Z,14.0
2023-05-16T04:55:02.730Z,14.5
2023-05-16T04:56:03.329Z,11.1
2023-05-16T04:57:03.923Z,16.0
2023-05-16T04:58:04.529Z,12.2
2023-05-16T04:59:05.137Z,18.6
2023-05-16T05:00:05.726Z,11.3
2023-05-16T05:01:06.324Z,19.9
2023-05-16T05:02:07.194Z,14.0
2023-05-16T05:03:07.880Z,16.9
2023-05-16T05:04:08.450Z,13.6
2023-05-16T05:05:09.114Z,10.5
2023-05-16T05:06:09.811Z,13.8
2023-05-16T05:07:10.402Z,16.5
2023-05-16T05:08:10.998Z,7.9
2023-05-16T05:09:11.600Z,19.6
2023-05-16T05:10:12.207Z,17.0
2023-05-16T05:11:12.810Z,15.2
2023-05-16T05:12:13.438Z,12.4
2023-05-16T05:13:14.031Z,15.9
2023-05-16T05:14:14.649Z,12.3
2023-05-16T05:15:15.270Z,16.5
2023-05-16T05:16:15.872Z,13.7
2023-05-16T05:17:16.547Z,14.8
2023-05-16T05:18:17.135Z,8.1
2023-05-16T05:19:17.739Z,19.6
2023-05-16T05:20:18.341Z,14.6
2023-05-16T05:21:18.951Z,23.3
2023-05-16T05:22:19.557Z,12.2
2023-05-16T05:23:20.180Z,10.8
2023-05-16T05:24:20.776Z,14.8
2023-05-16T05:25:21.381Z,15.1
2023-05-16T05:26:22.001Z,17.2
2023-05-16T05:27:22.582Z,9.7
2023-05-16T05:28:23.184Z,20.3
2023-05-16T05:29:23.804Z,14.6
2023-05-16T05:30:24.412Z,13.3
2023-05-16T05:31:25.028Z,19.8
2023-05-16T05:32:25.669Z,13.3
2023-05-16T05:33:26.280Z,11.0
2023-05-16T05:34:26.894Z,10.9
2023-05-16T05:35:27.674Z,12.8
2023-05-16T05:36:28.368Z,12.4
2023-05-16T05:37:28.973Z,14.2
2023-05-16T05:38:29.590Z,8.2
2023-05-16T05:39:30.191Z,14.8
2023-05-16T05:40:30.799Z,16.7
2023-05-16T05:41:31.393Z,15.7
2023-05-16T05:42:32.000Z,14.9
2023-05-16T05:43:32.605Z,17.5
2023-05-16T05:44:33.199Z,16.8
2023-05-16T05:45:33.850Z,14.1
2023-05-16T05:46:34.503Z,14.6
2023-05-16T05:47:35.155Z,23.2
2023-05-16T05:48:35.689Z,13.1
2023-05-16T05:49:36.293Z,6.2
2023-05-16T05:50:36.917Z,11.1
2023-05-16T05:51:37.540Z,11.5
2023-05-16T05:52:38.153Z,14.7
2023-05-16T05:53:38.759Z,14.4
2023-05-16T05:54:39.365Z,10.9
2023-05-16T05:55:39.971Z,10.0
2023-05-16T05:56:40.569Z,12.0
2023-05-16T05:57:41.173Z,13.9
2023-05-16T05:58:41.781Z,13.8
2023-05-16T05:59:42.395Z,13.0
2023-05-16T06:00:43.020Z,8.1
2023-05-16T06:01:43.682Z,10.5
2023-05-16T06:02:44.372Z,17.6
2023-05-16T06:03:44.858Z,10.8
2023-05-16T06:04:45.477Z,16.0
2023-05-16T06:05:46.088Z,12.6
2023-05-16T06:06:46.687Z,14.1
2023-05-16T06:07:47.283Z,13.0
2023-05-16T06:08:47.884Z,8.6
2023-05-16T06:09:48.491Z,10.0
2023-05-16T06:10:49.090Z,12.8
2023-05-16T06:11:49.707Z,14.2
2023-05-16T06:12:50.312Z,15.6
2023-05-16T06:13:50.911Z,9.1
2023-05-16T06:14:51.511Z,12.0
2023-05-16T06:15:52.114Z,14.1
2023-05-16T06:16:52.765Z,13.9
2023-05-16T06:17:53.375Z,9.0
2023-05-16T06:18:54.063Z,9.7
2023-05-16T06:19:54.636Z,11.6
2023-05-16T06:20:55.259Z,18.6
2023-05-16T06:21:55.864Z,8.4
2023-05-16T06:22:56.469Z,11.7
2023-05-16T06:23:57.058Z,10.1
2023-05-16T06:24:57.707Z,8.5
2023-05-16T06:25:58.281Z,12.0
2023-05-16T06:26:58.886Z,10.8
2023-05-16T06:27:59.505Z,7.7
2023-05-16T06:29:00.161Z,12.4
2023-05-16T06:30:00.752Z,10.3
2023-05-16T06:31:01.406Z,9.0
2023-05-16T06:32:02.064Z,8.9
2023-05-16T06:33:02.874Z,15.1
2023-05-16T06:34:03.452Z,10.1
2023-05-16T06:35:04.065Z,13.3
2023-05-16T06:36:04.670Z,11.6
2023-05-16T06:37:05.313Z,11.3
2023-05-16T06:38:05.887Z,12.1
2023-05-16T06:39:06.487Z,13.6
2023-05-16T06:40:07.087Z,9.7
2023-05-16T06:41:07.695Z,7.5
2023-05-16T06:42:08.288Z,14.6
2023-05-16T06:43:08.913Z,10.9
2023-05-16T06:44:09.515Z,8.0
2023-05-16T06:45:10.111Z,5.1
2023-05-16T06:46:10.788Z,12.5
2023-05-16T06:47:11.369Z,12.0
2023-05-16T06:48:12.054Z,6.0
2023-05-16T06:49:12.644Z,6.4
2023-05-16T06:50:13.252Z,7.8
2023-05-16T06:51:13.879Z,7.1
2023-05-16T06:52:14.469Z,8.2
2023-05-16T06:53:15.074Z,11.0
2023-05-16T06:54:15.670Z,7.9
2023-05-16T06:55:16.294Z,10.3
2023-05-16T06:56:16.895Z,13.8
2023-05-16T06:57:17.512Z,4.6
2023-05-16T06:58:18.133Z,7.1
2023-05-16T06:59:18.743Z,11.2
2023-05-16T07:00:19.341Z,7.8
2023-05-16T07:01:19.983Z,12.7
2023-05-16T07:02:20.684Z,8.5
2023-05-16T07:03:21.293Z,6.0
2023-05-16T07:04:21.875Z,6.6
2023-05-16T07:05:22.486Z,11.0
2023-05-16T07:06:23.103Z,12.3
2023-05-16T07:07:23.711Z,6.9
2023-05-16T07:08:24.305Z,8.2
2023-05-16T07:09:24.913Z,12.7
2023-05-16T07:10:25.530Z,8.0
2023-05-16T07:11:26.105Z,13.6
2023-05-16T07:12:26.744Z,13.8
2023-05-16T07:13:27.309Z,5.8
2023-05-16T07:14:27.911Z,8.8
2023-05-16T07:15:28.725Z,8.4
2023-05-16T07:16:29.489Z,6.2
2023-05-16T07:17:30.187Z,11.3
2023-05-16T07:18:30.776Z,10.5
2023-05-16T07:19:31.371Z,6.7
2023-05-16T07:20:32.117Z,14.1
2023-05-16T07:21:32.639Z,9.0
2023-05-16T07:22:33.255Z,5.4
2023-05-16T07:23:33.861Z,12.6
2023-05-16T07:24:34.457Z,7.3
2023-05-16T07:25:35.066Z,13.7
2023-05-16T07:26:35.660Z,9.2
2023-05-16T07:27:36.258Z,9.4
2023-05-16T07:28:36.888Z,7.1
2023-05-16T07:29:37.532Z,10.6
2023-05-16T07:30:38.094Z,11.4
2023-05-16T07:31:38.783Z,7.7
2023-05-16T07:32:39.417Z,10.1
2023-05-16T07:33:40.010Z,10.1
2023-05-16T07:34:40.612Z,11.6
2023-05-16T07:35:41.215Z,8.9
2023-05-16T07:36:41.811Z,5.4
2023-05-16T07:37:42.461Z,9.7
2023-05-16T07:38:43.071Z,4.6
2023-05-16T07:39:43.838Z,7.1
2023-05-16T07:40:44.451Z,9.8
2023-05-16T07:41:45.062Z,6.9
2023-05-16T07:42:45.659Z,8.6
2023-05-16T07:43:46.264Z,5.4
2023-05-16T07:44:46.881Z,11.6
2023-05-16T07:45:47.541Z,6.9
2023-05-16T07:46:48.129Z,15.0
2023-05-16T07:47:48.778Z,5.0
2023-05-16T07:48:49.369Z,9.2
2023-05-16T07:49:49.991Z,7.6
2023-05-16T07:50:50.594Z,6.0
2023-05-16T07:51:51.227Z,8.1
2023-05-16T07:52:51.811Z,6.7
2023-05-16T07:53:52.414Z,6.3
2023-05-16T07:54:53.017Z,9.1
2023-05-16T07:55:53.618Z,6.0
2023-05-16T07:56:54.221Z,9.3
2023-05-16T07:57:54.841Z,4.8
2023-05-16T07:58:55.452Z,4.2
2023-05-16T07:59:56.042Z,11.9
2023-05-16T08:00:56.655Z,4.8
2023-05-16T08:01:57.348Z,6.9
2023-05-16T08:02:58.080Z,6.0
2023-05-16T08:03:58.747Z,7.2
2023-05-16T08:04:59.408Z,7.5
2023-05-16T08:06:00.020Z,4.2
2023-05-16T08:07:00.575Z,6.1
2023-05-16T08:08:01.180Z,5.4
2023-05-16T08:09:01.779Z,8.1
2023-05-16T08:10:02.376Z,11.0
2023-05-16T08:11:02.994Z,6.5
2023-05-16T08:12:03.702Z,5.7
2023-05-16T08:13:04.227Z,6.1
2023-05-16T08:14:04.826Z,8.1
2023-05-16T08:15:05.426Z,6.9
2023-05-16T08:16:06.089Z,8.5
2023-05-16T08:17:06.669Z,5.8
2023-05-16T08:18:07.339Z,7.8
2023-05-16T08:19:07.947Z,7.9
2023-05-16T08:20:08.552Z,6.0
2023-05-16T08:21:09.136Z,9.5
2023-05-16T08:22:09.782Z,7.9
2023-05-16T08:23:10.410Z,6.4
2023-05-16T08:24:11.013Z,6.0
2023-05-16T08:25:11.620Z,5.9
2023-05-16T08:26:12.237Z,12.5
2023-05-16T08:27:12.859Z,8.3
2023-05-16T08:28:13.452Z,4.9
2023-05-16T08:29:14.052Z,4.8
2023-05-16T08:30:14.655Z,5.7
2023-05-16T08:31:15.312Z,4.6
2023-05-16T08:32:15.873Z,8.6
2023-05-16T08:33:16.598Z,9.0
2023-05-16T08:34:17.206Z,6.6
2023-05-16T08:35:17.827Z,4.9
2023-05-16T08:36:18.430Z,6.4
2023-05-16T08:37:19.041Z,4.7
2023-05-16T08:38:19.642Z,6.5
2023-05-16T08:39:20.265Z,11.2
2023-05-16T08:40:20.869Z,4.3
2023-05-16T08:41:21.492Z,8.1
2023-05-16T08:42:22.092Z,2.6
2023-05-16T08:43:22.692Z,7.1
2023-05-16T08:44:23.323Z,3.2
2023-05-16T08:45:23.942Z,6.2
2023-05-16T08:46:24.579Z,6.6
2023-05-16T08:47:25.183Z,7.8
2023-05-16T08:48:25.802Z,6.6
2023-05-16T08:49:26.417Z,4.1
2023-05-16T08:50:27.016Z,4.2
2023-05-16T08:51:27.615Z,6.7
2023-05-16T08:52:28.218Z,8.3
2023-05-16T08:53:28.819Z,4.9
2023-05-16T08:54:29.423Z,7.3
2023-05-16T08:55:30.230Z,6.0
2023-05-16T08:56:30.642Z,6.3
2023-05-16T08:57:31.247Z,4.2
2023-05-16T08:58:31.857Z,9.7
2023-05-16T08:59:32.466Z,7.1
2023-05-16T09:00:33.070Z,10.7
2023-05-16T09:01:33.779Z,18.4
2023-05-16T09:02:34.497Z,17.5
2023-05-16T09:03:35.101Z,8.9
2023-05-16T09:04:35.699Z,7.0
2023-05-16T09:05:36.292Z,14.1
2023-05-16T09:06:36.927Z,5.2
2023-05-16T09:07:37.529Z,5.0
2023-05-16T09:08:38.132Z,5.2
2023-05-16T09:09:38.731Z,3.8
2023-05-16T09:10:39.358Z,7.4
2023-05-16T09:11:39.953Z,7.2
2023-05-16T09:12:40.558Z,5.0
2023-05-16T09:13:41.159Z,8.1
2023-05-16T09:14:41.776Z,5.8
2023-05-16T09:15:42.382Z,6.7
2023-05-16T09:16:43.024Z,7.6
2023-05-16T09:17:43.770Z,9.4
2023-05-16T09:18:44.530Z,4.5
2023-05-16T09:19:45.303Z,8.7
2023-05-16T09:20:46.152Z,4.9
2023-05-16T09:21:46.760Z,2.2
2023-05-16T09:22:47.379Z,4.3
2023-05-16T09:23:47.981Z,3.4
2023-05-16T09:24:48.590Z,12.2
2023-05-16T09:25:49.187Z,5.8
2023-05-16T09:26:49.792Z,7.3
2023-05-16T09:27:50.392Z,4.1
2023-05-16T09:28:50.996Z,3.2
2023-05-16T09:29:51.599Z,3.3
2023-05-16T09:30:52.280Z,5.8
2023-05-16T09:31:52.944Z,4.2
2023-05-16T09:32:53.588Z,6.1
2023-05-16T09:33:54.124Z,10.5
2023-05-16T09:34:54.723Z,3.5
2023-05-16T09:35:55.335Z,6.5
2023-05-16T09:36:55.973Z,8.7
2023-05-16T09:37:56.581Z,5.5
2023-05-16T09:38:57.183Z,5.6
2023-05-16T09:39:57.786Z,7.8
2023-05-16T09:40:58.389Z,4.8
2023-05-16T09:41:58.995Z,4.7
2023-05-16T09:42:59.596Z,5.6
2023-05-16T09:44:00.198Z,5.2
2023-05-16T09:45:02.241Z,3.3
2023-05-16T09:46:02.904Z,8.5
2023-05-16T09:47:03.456Z,7.0
2023-05-16T09:48:04.107Z,2.6
2023-05-16T09:49:04.676Z,8.6
2023-05-16T09:50:05.287Z,4.2
2023-05-16T09:51:05.890Z,4.8
2023-05-16T09:52:06.511Z,4.5
2023-05-16T09:53:07.127Z,5.6
2023-05-16T09:54:07.715Z,1.8
2023-05-16T09:55:08.320Z,4.4
2023-05-16T09:56:08.918Z,7.4
2023-05-16T09:57:09.528Z,4.5
2023-05-16T09:58:10.135Z,7.5
2023-05-16T09:59:10.755Z,4.9
2023-05-16T10:00:11.377Z,5.0
2023-05-16T10:01:11.987Z,4.4
2023-05-16T10:02:12.603Z,2.7
2023-05-16T10:03:13.217Z,8.3
2023-05-16T10:04:13.872Z,10.6
2023-05-16T10:05:14.490Z,2.9
2023-05-16T10:06:15.093Z,7.0
2023-05-16T10:07:16.370Z,6.1
2023-05-16T10:08:16.969Z,4.5
2023-05-16T10:09:17.587Z,3.3
2023-05-16T10:10:18.339Z,5.9
2023-05-16T10:11:18.920Z,5.7
2023-05-16T10:12:19.537Z,9.8
2023-05-16T10:13:20.149Z,1.9
2023-05-16T10:14:20.752Z,3.1
2023-05-16T10:15:21.358Z,6.9
2023-05-16T10:16:22.030Z,5.5
2023-05-16T10:17:22.578Z,4.2
2023-05-16T10:18:23.178Z,4.6
2023-05-16T10:19:23.894Z,9.7
2023-05-16T10:20:24.557Z,10.0
2023-05-16T10:21:25.161Z,7.0
2023-05-16T10:22:25.919Z,3.5
2023-05-16T10:23:26.441Z,5.5
2023-05-16T10:24:27.039Z,5.0
2023-05-16T10:25:28.107Z,3.6
2023-05-16T10:26:28.895Z,6.1
2023-05-16T10:27:29.511Z,6.0
2023-05-16T10:28:30.112Z,16.9
2023-05-16T10:29:37.452Z,4.3
2023-05-16T10:30:31.336Z,6.4
2023-05-16T10:31:31.936Z,3.2
2023-05-16T10:32:32.595Z,4.5
2023-05-16T10:33:33.167Z,6.4
2023-05-16T10:34:33.766Z,2.8
2023-05-16T10:35:34.366Z,4.1
2023-05-16T10:36:34.969Z,5.1
2023-05-16T10:37:35.589Z,5.6
2023-05-16T10:38:36.192Z,4.4
2023-05-16T10:39:36.811Z,4.2
2023-05-16T10:40:37.409Z,2.8
2023-05-16T10:41:38.033Z,5.5
2023-05-16T10:42:38.635Z,2.6
2023-05-16T10:43:39.244Z,6.0
2023-05-16T10:44:39.900Z,4.7
2023-05-16T10:45:40.979Z,5.4
2023-05-16T10:46:41.577Z,7.6
2023-05-16T10:47:42.201Z,7.1
2023-05-16T10:48:42.792Z,5.6
2023-05-16T10:49:43.392Z,10.9
2023-05-16T10:50:44.020Z,4.7
2023-05-16T10:51:44.634Z,4.8
2023-05-16T10:52:45.248Z,3.2
2023-05-16T10:53:45.890Z,3.3
2023-05-16T10:54:46.487Z,3.7
2023-05-16T10:55:47.093Z,5.3
2023-05-16T10:56:47.702Z,4.5
2023-05-16T10:57:48.297Z,5.6
2023-05-16T10:58:48.900Z,8.6
2023-05-16T10:59:49.520Z,4.9
2023-05-16T11:00:50.181Z,2.8
2023-05-16T11:01:50.877Z,2.3
2023-05-16T11:02:51.501Z,6.7
2023-05-16T11:03:52.118Z,8.2
2023-05-16T11:04:52.716Z,6.7
2023-05-16T11:05:53.528Z,1.9
2023-05-16T11:06:54.130Z,2.6
2023-05-16T11:07:54.757Z,1.5
2023-05-16T11:08:55.359Z,4.7
2023-05-16T11:09:55.982Z,2.0
2023-05-16T11:10:56.584Z,2.5
2023-05-16T11:11:57.199Z,2.0
2023-05-16T11:12:57.815Z,2.8
2023-05-16T11:13:58.470Z,2.2
2023-05-16T11:14:59.073Z,1.5
2023-05-16T11:15:59.674Z,1.8
2023-05-16T11:17:00.445Z,4.9
2023-05-16T11:18:01.074Z,6.8
2023-05-16T11:19:01.680Z,1.6
2023-05-16T11:20:02.250Z,2.6
2023-05-16T11:21:02.855Z,1.3
2023-05-16T11:22:03.460Z,2.0
2023-05-16T11:23:04.282Z,1.8
2023-05-16T11:24:04.889Z,2.8
2023-05-16T11:25:05.497Z,0.8
2023-05-16T11:26:06.096Z,4.1
2023-05-16T11:27:06.711Z,3.8
2023-05-16T11:28:07.298Z,1.7
2023-05-16T11:29:07.906Z,1.2
2023-05-16T11:30:08.505Z,3.4
2023-05-16T11:31:09.343Z,3.1
2023-05-16T11:32:09.992Z,3.3
2023-05-16T11:33:10.630Z,2.2
2023-05-16T11:34:11.205Z,2.9
2023-05-16T11:35:25.398Z,4.2
2023-05-16T11:36:16.323Z,2.5
2023-05-16T11:37:14.025Z,3.8
2023-05-16T11:38:14.627Z,4.3
2023-05-16T11:39:15.278Z,1.7
2023-05-16T11:40:15.890Z,2.6
2023-05-16T11:41:16.770Z,3.8
2023-05-16T11:42:17.340Z,4.0
2023-05-16T11:43:17.933Z,1.6
2023-05-16T11:44:18.548Z,4.4
2023-05-16T11:45:19.144Z,5.6
2023-05-16T11:46:19.788Z,5.4
2023-05-16T11:47:20.345Z,4.6
2023-05-16T11:48:32.549Z,7.8
2023-05-16T11:49:21.579Z,4.1
2023-05-16T11:50:22.326Z,1.8
2023-05-16T11:51:22.944Z,1.9
2023-05-16T11:52:23.544Z,2.8
2023-05-16T11:53:24.155Z,3.0
2023-05-16T11:54:24.777Z,4.9
2023-05-16T11:55:40.168Z,3.6
2023-05-16T11:56:26.970Z,1.4
2023-05-16T11:57:27.594Z,4.7
2023-05-16T11:58:28.194Z,3.8
2023-05-16T11:59:28.821Z,2.5
2023-05-16T12:00:29.413Z,2.8
2023-05-16T12:01:30.398Z,4.1
2023-05-16T12:02:31.026Z,2.8
2023-05-16T12:03:31.727Z,3.3
2023-05-16T12:04:32.473Z,3.1
2023-05-16T12:05:34.067Z,4.5
2023-05-16T12:06:34.731Z,4.3
2023-05-16T12:07:35.337Z,2.2
2023-05-16T12:08:35.938Z,3.3
2023-05-16T12:09:36.559Z,4.4
2023-05-16T12:10:37.161Z,3.9
2023-05-16T12:11:37.782Z,2.2
2023-05-16T12:12:38.384Z,1.8
2023-05-16T12:13:38.987Z,4.2
2023-05-16T12:14:39.591Z,3.4
2023-05-16T12:15:40.196Z,1.8
2023-05-16T12:16:40.862Z,2.6
2023-05-16T12:17:41.462Z,6.6
2023-05-16T12:18:43.471Z,6.1
2023-05-16T12:19:43.625Z,4.5
2023-05-16T12:20:44.226Z,1.2
2023-05-16T12:21:44.858Z,3.6
2023-05-16T12:22:45.441Z,1.6
2023-05-16T12:23:46.048Z,3.5
2023-05-16T12:24:46.663Z,6.6
2023-05-16T12:25:47.267Z,2.5
2023-05-16T12:26:47.869Z,3.4
2023-05-16T12:27:48.469Z,3.3
2023-05-16T12:28:49.071Z,3.0
2023-05-16T12:29:49.678Z,6.4
2023-05-16T12:30:50.280Z,1.9
2023-05-16T12:31:50.894Z,2.5
2023-05-16T12:32:51.628Z,3.2
2023-05-16T12:33:52.285Z,4.7
2023-05-16T12:34:52.906Z,3.8
2023-05-16T12:35:53.510Z,4.0
2023-05-16T12:36:54.121Z,4.5
2023-05-16T12:37:54.734Z,4.3
2023-05-16T12:38:55.432Z,4.4
2023-05-16T12:39:55.954Z,5.7
2023-05-16T12:40:56.557Z,5.2
2023-05-16T12:41:57.184Z,6.3
2023-05-16T12:42:57.809Z,5.0
2023-05-16T12:43:58.407Z,2.5
2023-05-16T12:44:59.010Z,3.3
2023-05-16T12:45:59.669Z,1.5
2023-05-16T12:47:00.240Z,3.4
2023-05-16T12:48:00.891Z,4.3
2023-05-16T12:49:01.457Z,6.1
2023-05-16T12:50:02.083Z,5.6
2023-05-16T12:51:02.662Z,2.6
2023-05-16T12:52:03.261Z,3.3
2023-05-16T12:53:03.865Z,4.5
2023-05-16T12:54:10.173Z,9.2
2023-05-16T12:55:05.114Z,4.9
2023-05-16T12:56:05.704Z,4.3
2023-05-16T12:57:06.326Z,2.5
2023-05-16T12:58:06.978Z,3.0
2023-05-16T12:59:07.527Z,3.8
2023-05-16T13:00:08.147Z,3.5
2023-05-16T13:01:08.797Z,3.2
2023-05-16T13:02:09.415Z,2.8
2023-05-16T13:03:10.181Z,3.3
2023-05-16T13:04:10.797Z,6.3
2023-05-16T13:05:11.377Z,2.4
2023-05-16T13:06:12.003Z,5.4
2023-05-16T13:07:12.602Z,2.3
2023-05-16T13:08:13.204Z,3.7
2023-05-16T13:09:13.892Z,2.3
2023-05-16T13:10:14.428Z,4.9
2023-05-16T13:11:15.054Z,6.0
2023-05-16T13:12:15.666Z,4.1
2023-05-16T13:13:25.155Z,4.2
2023-05-16T13:14:17.841Z,6.4
2023-05-16T13:15:18.460Z,6.5
2023-05-16T13:16:19.151Z,4.1
2023-05-16T13:17:19.789Z,5.8
2023-05-16T13:18:20.389Z,3.6
2023-05-16T13:19:21.264Z,7.3
2023-05-16T13:20:22.028Z,3.9
2023-05-16T13:21:22.726Z,5.0
2023-05-16T13:22:23.348Z,2.0
2023-05-16T13:23:23.955Z,4.8
2023-05-16T13:24:24.664Z,4.7
2023-05-16T13:25:25.240Z,1.7
2023-05-16T13:26:25.870Z,1.0
2023-05-16T13:27:26.421Z,3.4
2023-05-16T13:28:27.038Z,1.8
2023-05-16T13:29:27.643Z,3.9
2023-05-16T13:30:28.261Z,1.1
2023-05-16T13:31:28.903Z,5.2
2023-05-16T13:32:29.523Z,1.6
2023-05-16T13:33:30.107Z,4.8
2023-05-16T13:34:30.709Z,2.6
2023-05-16T13:35:31.310Z,3.5
2023-05-16T13:36:41.765Z,3.6
2023-05-16T13:37:32.540Z,2.0
2023-05-16T13:38:33.151Z,3.6
2023-05-16T13:39:33.853Z,7.7
2023-05-16T13:40:34.376Z,2.5
2023-05-16T13:41:34.982Z,4.6
2023-05-16T13:42:35.587Z,2.8
2023-05-16T13:43:36.189Z,2.6
2023-05-16T13:44:36.801Z,4.0
2023-05-16T13:45:37.433Z,3.8
2023-05-16T13:46:38.096Z,2.3